METAR Data
IDs: Format: Raw Decoded Include TAF

Data at: 1222 UTC 23 Sep 2018

KPVC 231156Z AUTO 00000KT 10SM CLR 12/10 A3025 RMK AO2 SLP243 7//// T01170100 10144 20078 50007
KPVC 231056Z AUTO 00000KT 10SM CLR 09/07 A3025 RMK AO2 SLP244 T00890067
KPVC 230956Z AUTO 00000KT 10SM CLR 08/06 A3024 RMK AO2 SLP238 T00780061
KPVC 230856Z AUTO 00000KT 10SM CLR 08/07 A3023 RMK AO2 SLP236 T00830067 53006
KPVC 230756Z AUTO 00000KT 10SM CLR 09/07 A3021 RMK AO2 SLP231 T00890072
KPVC 230656Z AUTO 00000KT 10SM CLR 11/08 A3021 RMK AO2 SLP230 T01060083
KPVC 230556Z AUTO 04004KT 10SM CLR 13/08 A3021 RMK AO2 SLP230 T01330083 10167 20133 50000
KPVC 230456Z AUTO 05003KT 10SM CLR 14/08 A3022 RMK AO2 SLP231 T01440078 402110133
KPVC 230356Z AUTO 04003KT 10SM CLR 16/08 A3022 RMK AO2 SLP233 T01560083
KPVC 230256Z AUTO 02007KT 10SM CLR 16/09 A3021 RMK AO2 SLPNO T01610089 51009
KPVC 230156Z AUTO 03005KT 10SM CLR 17/09 A3021 RMK AO2 SLPNO T01670094
KPVC 230056Z AUTO 05005KT 10SM CLR 16/11 A3020 RMK AO2 SLPNO T01610106
KPVC 222356Z AUTO 05009KT 10SM CLR 16/11 A3018 RMK AO2 SLPNO T01610106 10206 20161 51017
KPVC 222256Z AUTO 04009KT 10SM CLR 16/11 A3018 RMK AO2 SLPNO T01610106
KPVC 222156Z AUTO 05009KT 10SM CLR 17/11 A3015 RMK AO2 SLPNO T01670111
KPVC 222056Z AUTO 05010KT 10SM CLR 18/11 A3013 RMK AO2 SLPNO T01780111 53009
KPVC 221956Z AUTO 36009KT 10SM CLR 19/11 A3012 RMK AO2 SLPNO T01890106
KPVC 221856Z AUTO 36009KT 10SM CLR 20/12 A3011 RMK AO2 SLPNO T02000117
KPVC 221756Z AUTO 35013KT 10SM CLR 19/11 A3011 RMK AO2 SLPNO 6//// T01940111
KPVC 221656Z AUTO 34014G18KT 10SM CLR 21/12 A3009 RMK AO2 SLPNO T02110117
KPVC 221556Z AUTO 34016G20KT 10SM CLR 21/13 A3008 RMK AO2 SLPNO T02060128
KPVC 221456Z AUTO 33015G21KT 10SM CLR 21/13 A3005 RMK AO2 SLP175 T02110133 53037
KPVC 221356Z AUTO 29016G20KT 10SM CLR 22/15 A3001 RMK AO2 SLP162 T02220150
KPVC 221156Z AUTO 26015KT 10SM CLR 22/19 A2994 RMK AO2 SLP138 60000 T02170189 10217 20200 53021
KPVC 221056Z AUTO 24012KT 10SM FEW017 21/19 A2992 RMK AO2 SLP129 T02060194
KPVC 221025Z AUTO 22012KT 10SM FEW017 SCT075 20/19 A2989 RMK AO2
KPVC 220956Z AUTO 22015KT 10SM BKN015 21/19 A2988 RMK AO2 SLP118 T02060189
KPVC 220946Z AUTO 22015KT 10SM BKN017 OVC033 21/19 A2988 RMK AO2
KPVC 220926Z AUTO 22016KT 10SM FEW019 BKN033 BKN042 21/19 A2988 RMK AO2
KPVC 220856Z AUTO 22016G23KT 10SM BKN019 21/19 A2987 RMK AO2 RAB15E55 SLP114 P0000 60000 T02060189 56012
KPVC 220823Z AUTO 22018G23KT 10SM -RA OVC026 21/19 A2988 RMK AO2 RAB15 P0000
KPVC 220756Z AUTO 22017G22KT 10SM BKN030 21/19 A2988 RMK AO2 PK WND 22030/0722 SLP119 T02060189
KPVC 220656Z AUTO 21020G25KT 10SM CLR 21/18 A2988 RMK AO2 PK WND 22029/0637 SLP119 T02060183
KPVC 220556Z AUTO 21020G25KT 10SM CLR 21/18 A2991 RMK AO2 PK WND 20029/0537 SLP126 T02060178 10206 20183 58032
KPVC 220456Z AUTO 21017G22KT 10SM FEW021 20/18 A2994 RMK AO2 SLP138 T02000178 402000111
KPVC 220356Z AUTO 20016G22KT 10SM BKN044 20/18 A2998 RMK AO2 SLP150 T02000178
KPVC 220256Z AUTO 20012G21KT 10SM CLR 19/17 A3000 RMK AO2 SLP158 T01940167 56018
KPVC 220156Z AUTO 20016G20KT 10SM CLR 19/16 A3000 RMK AO2 SLP160 T01890161
KPVC 220056Z AUTO 19014G23KT 10SM FEW043 19/16 A3001 RMK AO2 SLP163 T01890161